sensor_id;sensor_type;location;lat;lon;timestamp;P1;durP1;ratioP1;P2;durP2;ratioP2
48042;SDS011;33988;47.992;8.820;2023-05-07T00:01:00;3.08;;;1.45;;
48042;SDS011;33988;47.992;8.820;2023-05-07T00:03:34;2.63;;;1.50;;
48042;SDS011;33988;47.992;8.820;2023-05-07T00:06:04;4.35;;;1.90;;
48042;SDS011;33988;47.992;8.820;2023-05-07T00:08:33;1.98;;;1.52;;
48042;SDS011;33988;47.992;8.820;2023-05-07T00:11:05;2.42;;;1.75;;
48042;SDS011;33988;47.992;8.820;2023-05-07T00:13:37;2.47;;;1.83;;
48042;SDS011;33988;47.992;8.820;2023-05-07T00:16:07;3.42;;;1.80;;
48042;SDS011;33988;47.992;8.820;2023-05-07T00:18:34;2.00;;;1.52;;
48042;SDS011;33988;47.992;8.820;2023-05-07T00:21:03;1.65;;;1.55;;
48042;SDS011;33988;47.992;8.820;2023-05-07T00:23:30;5.10;;;1.85;;
48042;SDS011;33988;47.992;8.820;2023-05-07T00:26:01;2.13;;;1.42;;
48042;SDS011;33988;47.992;8.820;2023-05-07T00:28:30;1.92;;;1.45;;
48042;SDS011;33988;47.992;8.820;2023-05-07T00:30:57;3.70;;;1.80;;
48042;SDS011;33988;47.992;8.820;2023-05-07T00:33:24;1.50;;;1.33;;
48042;SDS011;33988;47.992;8.820;2023-05-07T00:35:56;5.03;;;1.63;;
48042;SDS011;33988;47.992;8.820;2023-05-07T00:38:27;1.95;;;1.52;;
48042;SDS011;33988;47.992;8.820;2023-05-07T00:40:54;2.33;;;1.70;;
48042;SDS011;33988;47.992;8.820;2023-05-07T00:43:23;1.88;;;1.70;;
48042;SDS011;33988;47.992;8.820;2023-05-07T00:45:50;1.95;;;1.42;;
48042;SDS011;33988;47.992;8.820;2023-05-07T00:48:22;2.03;;;1.85;;
48042;SDS011;33988;47.992;8.820;2023-05-07T00:50:51;1.65;;;1.55;;
48042;SDS011;33988;47.992;8.820;2023-05-07T00:53:23;2.20;;;1.50;;
48042;SDS011;33988;47.992;8.820;2023-05-07T00:55:51;1.70;;;1.58;;
48042;SDS011;33988;47.992;8.820;2023-05-07T00:58:19;1.70;;;1.55;;
48042;SDS011;33988;47.992;8.820;2023-05-07T01:00:49;1.42;;;1.27;;
48042;SDS011;33988;47.992;8.820;2023-05-07T01:03:20;1.90;;;1.40;;
48042;SDS011;33988;47.992;8.820;2023-05-07T01:05:47;1.73;;;1.63;;
48042;SDS011;33988;47.992;8.820;2023-05-07T01:08:17;2.75;;;1.90;;
48042;SDS011;33988;47.992;8.820;2023-05-07T01:10:44;2.88;;;2.10;;
48042;SDS011;33988;47.992;8.820;2023-05-07T01:13:12;1.95;;;1.60;;
48042;SDS011;33988;47.992;8.820;2023-05-07T01:15:44;1.90;;;1.38;;
48042;SDS011;33988;47.992;8.820;2023-05-07T01:18:11;1.55;;;1.45;;
48042;SDS011;33988;47.992;8.820;2023-05-07T01:20:41;1.90;;;1.60;;
48042;SDS011;33988;47.992;8.820;2023-05-07T01:23:11;1.65;;;1.45;;
48042;SDS011;33988;47.992;8.820;2023-05-07T01:25:38;3.50;;;1.58;;
48042;SDS011;33988;47.992;8.820;2023-05-07T01:28:05;1.80;;;1.40;;
48042;SDS011;33988;47.992;8.820;2023-05-07T01:30:35;1.75;;;1.52;;
48042;SDS011;33988;47.992;8.820;2023-05-07T01:33:06;1.60;;;1.50;;
48042;SDS011;33988;47.992;8.820;2023-05-07T01:35:43;5.22;;;1.73;;
48042;SDS011;33988;47.992;8.820;2023-05-07T01:38:13;1.90;;;1.63;;
48042;SDS011;33988;47.992;8.820;2023-05-07T01:40:41;3.28;;;1.70;;
48042;SDS011;33988;47.992;8.820;2023-05-07T01:43:08;3.13;;;1.60;;
48042;SDS011;33988;47.992;8.820;2023-05-07T01:45:36;2.60;;;1.52;;
48042;SDS011;33988;47.992;8.820;2023-05-07T01:48:06;4.80;;;1.92;;
48042;SDS011;33988;47.992;8.820;2023-05-07T01:50:35;2.75;;;1.50;;
48042;SDS011;33988;47.992;8.820;2023-05-07T01:53:03;5.00;;;1.92;;
48042;SDS011;33988;47.992;8.820;2023-05-07T01:55:35;4.68;;;2.15;;
48042;SDS011;33988;47.992;8.820;2023-05-07T01:58:03;4.28;;;1.60;;
48042;SDS011;33988;47.992;8.820;2023-05-07T02:00:30;2.38;;;1.58;;
48042;SDS011;33988;47.992;8.820;2023-05-07T02:03:00;2.15;;;1.58;;
48042;SDS011;33988;47.992;8.820;2023-05-07T02:05:27;4.55;;;1.73;;
48042;SDS011;33988;47.992;8.820;2023-05-07T02:07:57;1.75;;;1.65;;
48042;SDS011;33988;47.992;8.820;2023-05-07T02:10:28;1.65;;;1.55;;
48042;SDS011;33988;47.992;8.820;2023-05-07T02:12:58;1.92;;;1.48;;
48042;SDS011;33988;47.992;8.820;2023-05-07T02:15:28;1.58;;;1.48;;
48042;SDS011;33988;47.992;8.820;2023-05-07T02:17:58;3.38;;;1.70;;
48042;SDS011;33988;47.992;8.820;2023-05-07T02:20:34;1.58;;;1.48;;
48042;SDS011;33988;47.992;8.820;2023-05-07T02:23:01;1.60;;;1.40;;
48042;SDS011;33988;47.992;8.820;2023-05-07T02:25:28;1.90;;;1.70;;
48042;SDS011;33988;47.992;8.820;2023-05-07T02:27:56;3.97;;;1.50;;
48042;SDS011;33988;47.992;8.820;2023-05-07T02:30:22;2.03;;;1.45;;
48042;SDS011;33988;47.992;8.820;2023-05-07T02:32:51;3.75;;;1.42;;
48042;SDS011;33988;47.992;8.820;2023-05-07T02:35:18;1.50;;;1.40;;
48042;SDS011;33988;47.992;8.820;2023-05-07T02:37:45;1.98;;;1.85;;
48042;SDS011;33988;47.992;8.820;2023-05-07T02:40:12;1.85;;;1.30;;
48042;SDS011;33988;47.992;8.820;2023-05-07T02:42:39;1.65;;;1.55;;
48042;SDS011;33988;47.992;8.820;2023-05-07T02:45:06;1.88;;;1.48;;
48042;SDS011;33988;47.992;8.820;2023-05-07T02:47:34;2.80;;;1.50;;
48042;SDS011;33988;47.992;8.820;2023-05-07T02:50:01;3.15;;;1.50;;
48042;SDS011;33988;47.992;8.820;2023-05-07T02:52:29;1.42;;;1.33;;
48042;SDS011;33988;47.992;8.820;2023-05-07T02:54:56;2.80;;;1.90;;
48042;SDS011;33988;47.992;8.820;2023-05-07T02:57:23;3.53;;;1.45;;
48042;SDS011;33988;47.992;8.820;2023-05-07T02:59:50;2.10;;;1.42;;
48042;SDS011;33988;47.992;8.820;2023-05-07T03:02:18;2.55;;;1.58;;
48042;SDS011;33988;47.992;8.820;2023-05-07T03:04:47;1.60;;;1.50;;
48042;SDS011;33988;47.992;8.820;2023-05-07T03:07:17;1.70;;;1.40;;
48042;SDS011;33988;47.992;8.820;2023-05-07T03:09:49;1.63;;;1.50;;
48042;SDS011;33988;47.992;8.820;2023-05-07T03:12:16;2.10;;;1.52;;
48042;SDS011;33988;47.992;8.820;2023-05-07T03:14:46;1.42;;;1.33;;
48042;SDS011;33988;47.992;8.820;2023-05-07T03:17:15;1.70;;;1.60;;
48042;SDS011;33988;47.992;8.820;2023-05-07T03:19:42;1.50;;;1.40;;
48042;SDS011;33988;47.992;8.820;2023-05-07T03:22:11;2.67;;;1.33;;
48042;SDS011;33988;47.992;8.820;2023-05-07T03:27:10;1.30;;;1.20;;
48042;SDS011;33988;47.992;8.820;2023-05-07T03:29:37;1.38;;;1.27;;
48042;SDS011;33988;47.992;8.820;2023-05-07T03:32:06;1.98;;;1.40;;
48042;SDS011;33988;47.992;8.820;2023-05-07T03:34:35;1.55;;;1.45;;
48042;SDS011;33988;47.992;8.820;2023-05-07T03:37:05;1.75;;;1.52;;
48042;SDS011;33988;47.992;8.820;2023-05-07T03:39:32;3.53;;;1.48;;
48042;SDS011;33988;47.992;8.820;2023-05-07T03:42:01;1.70;;;1.55;;
48042;SDS011;33988;47.992;8.820;2023-05-07T03:44:31;1.65;;;1.55;;
48042;SDS011;33988;47.992;8.820;2023-05-07T03:47:03;3.30;;;1.90;;
48042;SDS011;33988;47.992;8.820;2023-05-07T03:49:41;3.35;;;1.70;;
48042;SDS011;33988;47.992;8.820;2023-05-07T03:52:14;1.65;;;1.55;;
48042;SDS011;33988;47.992;8.820;2023-05-07T03:54:41;1.60;;;1.50;;
48042;SDS011;33988;47.992;8.820;2023-05-07T03:57:08;1.73;;;1.63;;
48042;SDS011;33988;47.992;8.820;2023-05-07T03:59:35;1.77;;;1.50;;
48042;SDS011;33988;47.992;8.820;2023-05-07T04:02:04;3.50;;;1.73;;
48042;SDS011;33988;47.992;8.820;2023-05-07T04:04:31;1.60;;;1.45;;
48042;SDS011;33988;47.992;8.820;2023-05-07T04:06:59;2.20;;;1.60;;
48042;SDS011;33988;47.992;8.820;2023-05-07T04:09:29;2.08;;;1.60;;
48042;SDS011;33988;47.992;8.820;2023-05-07T04:11:56;7.00;;;1.60;;
48042;SDS011;33988;47.992;8.820;2023-05-07T04:14:23;2.08;;;1.50;;
48042;SDS011;33988;47.992;8.820;2023-05-07T04:16:52;1.40;;;1.30;;
48042;SDS011;33988;47.992;8.820;2023-05-07T04:19:24;2.28;;;1.52;;
48042;SDS011;33988;47.992;8.820;2023-05-07T04:21:51;1.70;;;1.60;;
48042;SDS011;33988;47.992;8.820;2023-05-07T04:24:20;1.50;;;1.40;;
48042;SDS011;33988;47.992;8.820;2023-05-07T04:26:47;2.92;;;1.60;;
48042;SDS011;33988;47.992;8.820;2023-05-07T04:29:14;1.80;;;1.40;;
48042;SDS011;33988;47.992;8.820;2023-05-07T04:31:41;2.15;;;1.50;;
48042;SDS011;33988;47.992;8.820;2023-05-07T04:34:10;2.35;;;1.60;;
48042;SDS011;33988;47.992;8.820;2023-05-07T04:36:38;2.10;;;1.58;;
48042;SDS011;33988;47.992;8.820;2023-05-07T04:39:05;1.73;;;1.42;;
48042;SDS011;33988;47.992;8.820;2023-05-07T04:41:35;1.60;;;1.50;;
48042;SDS011;33988;47.992;8.820;2023-05-07T04:44:05;2.85;;;1.50;;
48042;SDS011;33988;47.992;8.820;2023-05-07T04:46:32;2.25;;;1.63;;
48042;SDS011;33988;47.992;8.820;2023-05-07T04:48:59;3.65;;;1.67;;
48042;SDS011;33988;47.992;8.820;2023-05-07T04:51:26;2.13;;;1.55;;
48042;SDS011;33988;47.992;8.820;2023-05-07T04:53:56;2.13;;;1.63;;
48042;SDS011;33988;47.992;8.820;2023-05-07T04:56:27;1.90;;;1.70;;
48042;SDS011;33988;47.992;8.820;2023-05-07T04:58:56;1.77;;;1.67;;
48042;SDS011;33988;47.992;8.820;2023-05-07T05:01:23;2.67;;;1.70;;
48042;SDS011;33988;47.992;8.820;2023-05-07T05:03:50;2.05;;;1.88;;
48042;SDS011;33988;47.992;8.820;2023-05-07T05:06:17;2.15;;;1.95;;
48042;SDS011;33988;47.992;8.820;2023-05-07T05:08:44;3.00;;;1.90;;
48042;SDS011;33988;47.992;8.820;2023-05-07T05:11:13;2.42;;;1.70;;
48042;SDS011;33988;47.992;8.820;2023-05-07T05:13:41;1.80;;;1.60;;
48042;SDS011;33988;47.992;8.820;2023-05-07T05:16:15;1.70;;;1.60;;
48042;SDS011;33988;47.992;8.820;2023-05-07T05:18:44;1.70;;;1.60;;
48042;SDS011;33988;47.992;8.820;2023-05-07T05:21:13;1.85;;;1.73;;
48042;SDS011;33988;47.992;8.820;2023-05-07T05:26:14;2.13;;;1.70;;
48042;SDS011;33988;47.992;8.820;2023-05-07T05:28:43;4.95;;;1.60;;
48042;SDS011;33988;47.992;8.820;2023-05-07T05:31:10;2.00;;;1.73;;
48042;SDS011;33988;47.992;8.820;2023-05-07T05:33:37;2.10;;;1.80;;
48042;SDS011;33988;47.992;8.820;2023-05-07T05:36:08;1.92;;;1.50;;
48042;SDS011;33988;47.992;8.820;2023-05-07T05:38:36;1.70;;;1.60;;
48042;SDS011;33988;47.992;8.820;2023-05-07T05:41:08;1.98;;;1.83;;
48042;SDS011;33988;47.992;8.820;2023-05-07T05:43:37;2.00;;;1.75;;
48042;SDS011;33988;47.992;8.820;2023-05-07T05:46:06;3.63;;;2.00;;
48042;SDS011;33988;47.992;8.820;2023-05-07T05:48:38;2.33;;;2.13;;
48042;SDS011;33988;47.992;8.820;2023-05-07T05:51:05;1.90;;;1.80;;
48042;SDS011;33988;47.992;8.820;2023-05-07T05:53:32;2.45;;;2.17;;
48042;SDS011;33988;47.992;8.820;2023-05-07T05:55:58;2.53;;;1.90;;
48042;SDS011;33988;47.992;8.820;2023-05-07T05:58:26;2.67;;;2.15;;
48042;SDS011;33988;47.992;8.820;2023-05-07T06:00:53;1.75;;;1.65;;
48042;SDS011;33988;47.992;8.820;2023-05-07T06:03:20;2.00;;;1.90;;
48042;SDS011;33988;47.992;8.820;2023-05-07T06:05:49;2.22;;;2.03;;
48042;SDS011;33988;47.992;8.820;2023-05-07T06:08:16;3.78;;;2.00;;
48042;SDS011;33988;47.992;8.820;2023-05-07T06:10:44;2.33;;;1.77;;
48042;SDS011;33988;47.992;8.820;2023-05-07T06:13:14;4.30;;;1.92;;
48042;SDS011;33988;47.992;8.820;2023-05-07T06:15:41;2.00;;;1.80;;
48042;SDS011;33988;47.992;8.820;2023-05-07T06:18:08;1.85;;;1.75;;
48042;SDS011;33988;47.992;8.820;2023-05-07T06:20:35;3.40;;;2.03;;
48042;SDS011;33988;47.992;8.820;2023-05-07T06:23:07;2.47;;;1.98;;
48042;SDS011;33988;47.992;8.820;2023-05-07T06:25:36;2.45;;;1.80;;
48042;SDS011;33988;47.992;8.820;2023-05-07T06:28:05;2.85;;;2.17;;
48042;SDS011;33988;47.992;8.820;2023-05-07T06:30:34;1.92;;;1.83;;
48042;SDS011;33988;47.992;8.820;2023-05-07T06:33:01;2.80;;;2.10;;
48042;SDS011;33988;47.992;8.820;2023-05-07T06:35:28;2.65;;;1.88;;
48042;SDS011;33988;47.992;8.820;2023-05-07T06:37:55;3.38;;;1.90;;
48042;SDS011;33988;47.992;8.820;2023-05-07T06:40:22;3.03;;;2.15;;
48042;SDS011;33988;47.992;8.820;2023-05-07T06:42:51;2.30;;;2.10;;
48042;SDS011;33988;47.992;8.820;2023-05-07T06:45:20;2.35;;;2.00;;
48042;SDS011;33988;47.992;8.820;2023-05-07T06:47:51;2.30;;;1.95;;
48042;SDS011;33988;47.992;8.820;2023-05-07T06:50:22;3.10;;;2.20;;
48042;SDS011;33988;47.992;8.820;2023-05-07T06:52:49;2.33;;;2.10;;
48042;SDS011;33988;47.992;8.820;2023-05-07T06:55:16;3.08;;;2.10;;
48042;SDS011;33988;47.992;8.820;2023-05-07T06:57:43;2.38;;;2.00;;
48042;SDS011;33988;47.992;8.820;2023-05-07T07:00:10;2.95;;;2.25;;
48042;SDS011;33988;47.992;8.820;2023-05-07T07:02:38;2.47;;;2.28;;
48042;SDS011;33988;47.992;8.820;2023-05-07T07:05:08;4.63;;;2.60;;
48042;SDS011;33988;47.992;8.820;2023-05-07T07:07:35;4.18;;;2.90;;
48042;SDS011;33988;47.992;8.820;2023-05-07T07:10:02;3.63;;;2.22;;
48042;SDS011;33988;47.992;8.820;2023-05-07T07:12:30;2.40;;;2.13;;
48042;SDS011;33988;47.992;8.820;2023-05-07T07:14:57;3.03;;;2.60;;
48042;SDS011;33988;47.992;8.820;2023-05-07T07:17:26;4.90;;;2.30;;
48042;SDS011;33988;47.992;8.820;2023-05-07T07:19:53;2.75;;;2.55;;
48042;SDS011;33988;47.992;8.820;2023-05-07T07:22:20;4.40;;;2.33;;
48042;SDS011;33988;47.992;8.820;2023-05-07T07:24:49;2.47;;;2.28;;
48042;SDS011;33988;47.992;8.820;2023-05-07T07:27:17;2.75;;;2.28;;
48042;SDS011;33988;47.992;8.820;2023-05-07T07:29:44;3.05;;;2.15;;
48042;SDS011;33988;47.992;8.820;2023-05-07T07:32:13;2.70;;;1.85;;
48042;SDS011;33988;47.992;8.820;2023-05-07T07:34:40;6.03;;;2.05;;
48042;SDS011;33988;47.992;8.820;2023-05-07T07:37:10;2.72;;;2.10;;
48042;SDS011;33988;47.992;8.820;2023-05-07T07:39:39;2.17;;;1.83;;
48042;SDS011;33988;47.992;8.820;2023-05-07T07:42:08;3.10;;;2.20;;
48042;SDS011;33988;47.992;8.820;2023-05-07T07:44:35;2.38;;;2.17;;
48042;SDS011;33988;47.992;8.820;2023-05-07T07:47:02;3.72;;;2.20;;
48042;SDS011;33988;47.992;8.820;2023-05-07T07:49:31;2.70;;;2.40;;
48042;SDS011;33988;47.992;8.820;2023-05-07T07:51:58;2.28;;;2.08;;
48042;SDS011;33988;47.992;8.820;2023-05-07T07:54:27;3.30;;;2.45;;
48042;SDS011;33988;47.992;8.820;2023-05-07T07:56:57;2.33;;;2.03;;
48042;SDS011;33988;47.992;8.820;2023-05-07T07:59:24;2.22;;;2.00;;
48042;SDS011;33988;47.992;8.820;2023-05-07T08:01:51;2.15;;;1.95;;
48042;SDS011;33988;47.992;8.820;2023-05-07T08:04:21;2.28;;;2.08;;
48042;SDS011;33988;47.992;8.820;2023-05-07T08:06:51;4.60;;;2.30;;
48042;SDS011;33988;47.992;8.820;2023-05-07T08:09:20;2.90;;;1.95;;
48042;SDS011;33988;47.992;8.820;2023-05-07T08:11:49;2.55;;;2.35;;
48042;SDS011;33988;47.992;8.820;2023-05-07T08:14:19;4.65;;;2.38;;
48042;SDS011;33988;47.992;8.820;2023-05-07T08:16:49;4.00;;;2.28;;
48042;SDS011;33988;47.992;8.820;2023-05-07T08:19:16;2.92;;;2.50;;
48042;SDS011;33988;47.992;8.820;2023-05-07T08:21:45;3.80;;;2.60;;
48042;SDS011;33988;47.992;8.820;2023-05-07T08:24:17;2.75;;;2.40;;
48042;SDS011;33988;47.992;8.820;2023-05-07T08:26:46;3.95;;;2.40;;
48042;SDS011;33988;47.992;8.820;2023-05-07T08:29:13;2.78;;;2.47;;
48042;SDS011;33988;47.992;8.820;2023-05-07T08:31:45;2.42;;;2.20;;
48042;SDS011;33988;47.992;8.820;2023-05-07T08:34:11;4.53;;;2.30;;
48042;SDS011;33988;47.992;8.820;2023-05-07T08:36:38;2.80;;;2.38;;
48042;SDS011;33988;47.992;8.820;2023-05-07T08:39:13;3.10;;;1.88;;
48042;SDS011;33988;47.992;8.820;2023-05-07T08:41:45;2.22;;;2.00;;
48042;SDS011;33988;47.992;8.820;2023-05-07T08:44:14;2.75;;;2.00;;
48042;SDS011;33988;47.992;8.820;2023-05-07T08:46:46;4.05;;;1.95;;
48042;SDS011;33988;47.992;8.820;2023-05-07T08:49:15;3.65;;;1.80;;
48042;SDS011;33988;47.992;8.820;2023-05-07T08:51:48;4.32;;;1.85;;
48042;SDS011;33988;47.992;8.820;2023-05-07T08:54:18;2.63;;;2.03;;
48042;SDS011;33988;47.992;8.820;2023-05-07T08:56:47;3.05;;;1.60;;
48042;SDS011;33988;47.992;8.820;2023-05-07T08:59:17;1.65;;;1.55;;
48042;SDS011;33988;47.992;8.820;2023-05-07T09:01:44;3.25;;;1.70;;
48042;SDS011;33988;47.992;8.820;2023-05-07T09:04:11;1.73;;;1.63;;
48042;SDS011;33988;47.992;8.820;2023-05-07T09:06:39;3.60;;;1.73;;
48042;SDS011;33988;47.992;8.820;2023-05-07T09:09:08;1.48;;;1.38;;
48042;SDS011;33988;47.992;8.820;2023-05-07T09:11:35;1.50;;;1.40;;
48042;SDS011;33988;47.992;8.820;2023-05-07T09:14:02;2.08;;;1.60;;
48042;SDS011;33988;47.992;8.820;2023-05-07T09:16:32;3.83;;;1.70;;
48042;SDS011;33988;47.992;8.820;2023-05-07T09:19:01;1.70;;;1.60;;
48042;SDS011;33988;47.992;8.820;2023-05-07T09:21:28;2.75;;;1.67;;
48042;SDS011;33988;47.992;8.820;2023-05-07T09:24:00;1.83;;;1.42;;
48042;SDS011;33988;47.992;8.820;2023-05-07T09:26:29;1.73;;;1.25;;
48042;SDS011;33988;47.992;8.820;2023-05-07T09:28:57;2.22;;;1.58;;
48042;SDS011;33988;47.992;8.820;2023-05-07T09:31:24;3.22;;;1.40;;
48042;SDS011;33988;47.992;8.820;2023-05-07T09:33:53;1.25;;;1.10;;
48042;SDS011;33988;47.992;8.820;2023-05-07T09:36:23;3.38;;;1.50;;
48042;SDS011;33988;47.992;8.820;2023-05-07T09:38:52;2.45;;;1.52;;
48042;SDS011;33988;47.992;8.820;2023-05-07T09:41:19;2.28;;;1.25;;
48042;SDS011;33988;47.992;8.820;2023-05-07T09:43:48;1.38;;;1.25;;
48042;SDS011;33988;47.992;8.820;2023-05-07T09:46:22;2.72;;;1.67;;
48042;SDS011;33988;47.992;8.820;2023-05-07T09:48:58;1.65;;;1.50;;
48042;SDS011;33988;47.992;8.820;2023-05-07T09:51:41;2.38;;;1.77;;
48042;SDS011;33988;47.992;8.820;2023-05-07T09:54:14;1.67;;;1.58;;
48042;SDS011;33988;47.992;8.820;2023-05-07T09:56:45;4.57;;;1.52;;
48042;SDS011;33988;47.992;8.820;2023-05-07T09:59:12;2.20;;;1.70;;
48042;SDS011;33988;47.992;8.820;2023-05-07T10:01:43;2.22;;;1.48;;
48042;SDS011;33988;47.992;8.820;2023-05-07T10:04:11;2.00;;;1.60;;
48042;SDS011;33988;47.992;8.820;2023-05-07T10:06:38;1.90;;;1.63;;
48042;SDS011;33988;47.992;8.820;2023-05-07T10:09:06;2.88;;;1.40;;
48042;SDS011;33988;47.992;8.820;2023-05-07T10:11:34;1.65;;;1.55;;
48042;SDS011;33988;47.992;8.820;2023-05-07T10:14:05;1.58;;;1.48;;
48042;SDS011;33988;47.992;8.820;2023-05-07T10:16:33;2.40;;;1.83;;
48042;SDS011;33988;47.992;8.820;2023-05-07T10:19:03;3.30;;;1.73;;
48042;SDS011;33988;47.992;8.820;2023-05-07T10:21:36;1.95;;;1.58;;
48042;SDS011;33988;47.992;8.820;2023-05-07T10:26:34;1.90;;;1.60;;
48042;SDS011;33988;47.992;8.820;2023-05-07T10:29:07;1.95;;;1.48;;
48042;SDS011;33988;47.992;8.820;2023-05-07T10:31:58;2.65;;;1.58;;
48042;SDS011;33988;47.992;8.820;2023-05-07T10:34:47;1.83;;;1.70;;
48042;SDS011;33988;47.992;8.820;2023-05-07T10:37:19;2.10;;;1.90;;
48042;SDS011;33988;47.992;8.820;2023-05-07T10:39:47;2.25;;;1.80;;
48042;SDS011;33988;47.992;8.820;2023-05-07T10:42:14;4.85;;;1.73;;
48042;SDS011;33988;47.992;8.820;2023-05-07T10:44:44;2.03;;;1.85;;
48042;SDS011;33988;47.992;8.820;2023-05-07T10:47:11;1.90;;;1.70;;
48042;SDS011;33988;47.992;8.820;2023-05-07T10:54:46;2.97;;;1.75;;
48042;SDS011;33988;47.992;8.820;2023-05-07T11:00:03;1.65;;;1.48;;
48042;SDS011;33988;47.992;8.820;2023-05-07T11:03:06;7.93;;;2.08;;
48042;SDS011;33988;47.992;8.820;2023-05-07T11:05:34;4.28;;;2.53;;
48042;SDS011;33988;47.992;8.820;2023-05-07T11:08:04;2.20;;;1.80;;
48042;SDS011;33988;47.992;8.820;2023-05-07T11:16:20;1.95;;;1.70;;
48042;SDS011;33988;47.992;8.820;2023-05-07T11:18:53;3.85;;;1.85;;
48042;SDS011;33988;47.992;8.820;2023-05-07T11:24:05;2.60;;;1.95;;
48042;SDS011;33988;47.992;8.820;2023-05-07T11:26:43;4.03;;;2.25;;
48042;SDS011;33988;47.992;8.820;2023-05-07T11:29:17;5.37;;;2.73;;
48042;SDS011;33988;47.992;8.820;2023-05-07T11:31:49;2.75;;;2.30;;
48042;SDS011;33988;47.992;8.820;2023-05-07T11:34:21;2.85;;;2.05;;
48042;SDS011;33988;47.992;8.820;2023-05-07T11:36:49;2.72;;;2.13;;
48042;SDS011;33988;47.992;8.820;2023-05-07T11:39:26;4.43;;;2.35;;
48042;SDS011;33988;47.992;8.820;2023-05-07T11:41:54;2.35;;;2.15;;
48042;SDS011;33988;47.992;8.820;2023-05-07T11:44:24;2.90;;;2.50;;
48042;SDS011;33988;47.992;8.820;2023-05-07T11:46:51;2.78;;;2.25;;
48042;SDS011;33988;47.992;8.820;2023-05-07T11:49:18;3.05;;;2.03;;
48042;SDS011;33988;47.992;8.820;2023-05-07T11:51:45;4.63;;;2.13;;
48042;SDS011;33988;47.992;8.820;2023-05-07T11:54:17;2.10;;;1.83;;
48042;SDS011;33988;47.992;8.820;2023-05-07T11:56:48;2.30;;;2.03;;
48042;SDS011;33988;47.992;8.820;2023-05-07T11:59:18;2.20;;;1.98;;
48042;SDS011;33988;47.992;8.820;2023-05-07T12:01:46;2.75;;;2.00;;
48042;SDS011;33988;47.992;8.820;2023-05-07T12:04:13;2.03;;;1.83;;
48042;SDS011;33988;47.992;8.820;2023-05-07T12:06:47;1.83;;;1.48;;
48042;SDS011;33988;47.992;8.820;2023-05-07T12:09:17;2.17;;;1.70;;
48042;SDS011;33988;47.992;8.820;2023-05-07T12:11:45;1.88;;;1.35;;
48042;SDS011;33988;47.992;8.820;2023-05-07T12:14:13;3.65;;;1.50;;
48042;SDS011;33988;47.992;8.820;2023-05-07T12:16:44;1.60;;;1.38;;
48042;SDS011;33988;47.992;8.820;2023-05-07T12:19:12;1.30;;;1.15;;
48042;SDS011;33988;47.992;8.820;2023-05-07T12:21:41;1.63;;;1.50;;
48042;SDS011;33988;47.992;8.820;2023-05-07T12:24:08;1.75;;;1.42;;
48042;SDS011;33988;47.992;8.820;2023-05-07T12:26:38;6.95;;;1.70;;
48042;SDS011;33988;47.992;8.820;2023-05-07T12:29:07;2.45;;;1.70;;
48042;SDS011;33988;47.992;8.820;2023-05-07T12:31:36;1.52;;;1.10;;
48042;SDS011;33988;47.992;8.820;2023-05-07T12:34:14;2.15;;;1.20;;
48042;SDS011;33988;47.992;8.820;2023-05-07T12:36:44;2.33;;;1.40;;
48042;SDS011;33988;47.992;8.820;2023-05-07T12:39:14;3.65;;;1.60;;
48042;SDS011;33988;47.992;8.820;2023-05-07T12:41:54;6.47;;;1.48;;
48042;SDS011;33988;47.992;8.820;2023-05-07T12:44:23;4.65;;;1.30;;
48042;SDS011;33988;47.992;8.820;2023-05-07T12:46:53;4.25;;;1.65;;
48042;SDS011;33988;47.992;8.820;2023-05-07T12:49:23;2.30;;;1.30;;
48042;SDS011;33988;47.992;8.820;2023-05-07T12:51:51;4.15;;;1.50;;
48042;SDS011;33988;47.992;8.820;2023-05-07T12:54:28;6.20;;;1.70;;
48042;SDS011;33988;47.992;8.820;2023-05-07T12:59:36;5.25;;;1.40;;
48042;SDS011;33988;47.992;8.820;2023-05-07T13:02:06;4.63;;;1.60;;
48042;SDS011;33988;47.992;8.820;2023-05-07T13:04:36;1.45;;;1.35;;
48042;SDS011;33988;47.992;8.820;2023-05-07T13:07:03;3.10;;;1.70;;
48042;SDS011;33988;47.992;8.820;2023-05-07T13:09:30;2.88;;;1.77;;
48042;SDS011;33988;47.992;8.820;2023-05-07T13:11:58;2.17;;;1.40;;
48042;SDS011;33988;47.992;8.820;2023-05-07T13:14:27;4.00;;;1.38;;
48042;SDS011;33988;47.992;8.820;2023-05-07T13:16:54;5.80;;;1.65;;
48042;SDS011;33988;47.992;8.820;2023-05-07T13:19:23;2.45;;;1.40;;
48042;SDS011;33988;47.992;8.820;2023-05-07T13:21:56;1.88;;;1.35;;
48042;SDS011;33988;47.992;8.820;2023-05-07T13:24:23;2.70;;;1.60;;
48042;SDS011;33988;47.992;8.820;2023-05-07T13:26:50;2.03;;;1.20;;
48042;SDS011;33988;47.992;8.820;2023-05-07T13:29:17;13.18;;;1.50;;
48042;SDS011;33988;47.992;8.820;2023-05-07T13:31:44;1.80;;;1.10;;
48042;SDS011;33988;47.992;8.820;2023-05-07T13:34:13;3.08;;;1.30;;
48042;SDS011;33988;47.992;8.820;2023-05-07T13:36:42;2.20;;;1.33;;
48042;SDS011;33988;47.992;8.820;2023-05-07T13:39:12;8.90;;;3.78;;
48042;SDS011;33988;47.992;8.820;2023-05-07T13:41:41;3.10;;;2.17;;
48042;SDS011;33988;47.992;8.820;2023-05-07T13:44:08;4.60;;;1.75;;
48042;SDS011;33988;47.992;8.820;2023-05-07T13:46:36;2.25;;;1.58;;
48042;SDS011;33988;47.992;8.820;2023-05-07T13:49:08;2.25;;;1.63;;
48042;SDS011;33988;47.992;8.820;2023-05-07T13:51:37;2.95;;;1.48;;
48042;SDS011;33988;47.992;8.820;2023-05-07T13:54:04;1.77;;;1.35;;
48042;SDS011;33988;47.992;8.820;2023-05-07T13:56:31;1.80;;;1.42;;
48042;SDS011;33988;47.992;8.820;2023-05-07T13:58:58;1.42;;;1.30;;
48042;SDS011;33988;47.992;8.820;2023-05-07T14:01:26;1.63;;;1.50;;
48042;SDS011;33988;47.992;8.820;2023-05-07T14:03:56;2.40;;;1.50;;
48042;SDS011;33988;47.992;8.820;2023-05-07T14:06:26;2.25;;;1.50;;
48042;SDS011;33988;47.992;8.820;2023-05-07T14:08:58;4.75;;;1.50;;
48042;SDS011;33988;47.992;8.820;2023-05-07T14:11:26;1.50;;;1.30;;
48042;SDS011;33988;47.992;8.820;2023-05-07T14:13:53;1.80;;;1.17;;
48042;SDS011;33988;47.992;8.820;2023-05-07T14:16:23;1.42;;;1.27;;
48042;SDS011;33988;47.992;8.820;2023-05-07T14:18:50;1.42;;;1.33;;
48042;SDS011;33988;47.992;8.820;2023-05-07T14:21:17;1.80;;;1.48;;
48042;SDS011;33988;47.992;8.820;2023-05-07T14:23:43;1.70;;;1.35;;
48042;SDS011;33988;47.992;8.820;2023-05-07T14:26:10;1.67;;;1.58;;
48042;SDS011;33988;47.992;8.820;2023-05-07T14:28:40;3.88;;;1.42;;
48042;SDS011;33988;47.992;8.820;2023-05-07T14:31:12;1.30;;;1.20;;
48042;SDS011;33988;47.992;8.820;2023-05-07T14:33:39;1.90;;;1.42;;
48042;SDS011;33988;47.992;8.820;2023-05-07T14:36:07;2.00;;;1.42;;
48042;SDS011;33988;47.992;8.820;2023-05-07T14:38:34;1.45;;;1.30;;
48042;SDS011;33988;47.992;8.820;2023-05-07T14:41:04;1.23;;;1.13;;
48042;SDS011;33988;47.992;8.820;2023-05-07T14:43:33;2.33;;;1.42;;
48042;SDS011;33988;47.992;8.820;2023-05-07T14:46:03;2.15;;;1.42;;
48042;SDS011;33988;47.992;8.820;2023-05-07T14:48:33;1.35;;;1.25;;
48042;SDS011;33988;47.992;8.820;2023-05-07T14:51:02;1.45;;;1.30;;
48042;SDS011;33988;47.992;8.820;2023-05-07T14:53:29;1.63;;;1.40;;
48042;SDS011;33988;47.992;8.820;2023-05-07T14:55:58;3.72;;;1.80;;
48042;SDS011;33988;47.992;8.820;2023-05-07T14:58:28;2.13;;;1.80;;
48042;SDS011;33988;47.992;8.820;2023-05-07T15:00:55;2.35;;;1.48;;
48042;SDS011;33988;47.992;8.820;2023-05-07T15:03:22;3.97;;;1.50;;
48042;SDS011;33988;47.992;8.820;2023-05-07T15:05:53;2.75;;;1.70;;
48042;SDS011;33988;47.992;8.820;2023-05-07T15:08:22;3.13;;;1.65;;
48042;SDS011;33988;47.992;8.820;2023-05-07T15:10:49;2.22;;;1.48;;
48042;SDS011;33988;47.992;8.820;2023-05-07T15:13:16;1.75;;;1.42;;
48042;SDS011;33988;47.992;8.820;2023-05-07T15:15:44;1.58;;;1.48;;
48042;SDS011;33988;47.992;8.820;2023-05-07T15:18:14;1.27;;;1.17;;
48042;SDS011;33988;47.992;8.820;2023-05-07T15:20:41;1.90;;;1.33;;
48042;SDS011;33988;47.992;8.820;2023-05-07T15:23:11;2.63;;;1.65;;
48042;SDS011;33988;47.992;8.820;2023-05-07T15:25:40;1.35;;;1.23;;